aviador You're here:

KM25 Decoded Metar

in
Report Time2017-06-29 07:35:00
UTC Time2017-06-29 07:06:14
Flight Rules vfr VFR
Wind160° at 04 kt
W.Rank160° ranks 8
Current wind is below 160° avg. (5.8)
Visibility9999 m
Phenomena:N/A
Clouds:N/A
Expected CloudBase > 1,600 ft AGL from Temp-Dew spread
CeilingNone
Temp22°C
Dew Point18°C (78% RH)
QNH1016 hPa
Raw Report
KM25 290735Z AUTO 16004KT 7SM CLR 22/18 A3001 RMK AO2 PWINO=

Extra information for KM25:More info

Social comments